CMP115 MROC-MPTO
Flight info
| Callsign | CMP115 |
|---|---|
| Flight time | 0h 54m |
| Altitude | 33000 |
| Route | TEJAR3M LIO UA317 BUFEO DCT BITOR VUMAN2A |
| Aircraft | B38M/M-SDE1FGHILORVWXY/HB1 |
Departure
| Time | 2026-05-09 11:56 |
|---|---|
| Airport | Juan Santamaría International Airport (MROC) |
Arrival
| Time | 2026-05-09 12:50 |
|---|---|
| Airport | Tocumen International Airport (MPTO) |
| Time | Latitude | Longitude | Altitude | Speed | Heading |
|---|---|---|---|---|---|
| 2026-05-09 11:37 | 9.99702 | -84.20450 | 3014 ft | 0 kts | 338° |
| 2026-05-09 11:48 | 9.99697 | -84.20448 | 3014 ft | 2 kts | 340° |
| 2026-05-09 11:49 | 9.99687 | -84.20443 | 3019 ft | 2 kts | 328° |
| 2026-05-09 11:49 | 9.99677 | -84.20436 | 3020 ft | 2 kts | 318° |
| 2026-05-09 11:49 | 9.99669 | -84.20427 | 3021 ft | 2 kts | 308° |
| 2026-05-09 11:49 | 9.99663 | -84.20418 | 3021 ft | 2 kts | 293° |
| 2026-05-09 11:50 | 9.99660 | -84.20408 | 3021 ft | 2 kts | 266° |
| 2026-05-09 11:50 | 9.99660 | -84.20406 | 3021 ft | 0 kts | 259° |
| 2026-05-09 11:53 | 9.99659 | -84.20408 | 3015 ft | 2 kts | 259° |
| 2026-05-09 11:53 | 9.99646 | -84.20453 | 3014 ft | 13 kts | 251° |
| 2026-05-09 11:53 | 9.99597 | -84.20590 | 3008 ft | 28 kts | 249° |
| 2026-05-09 11:54 | 9.99509 | -84.20825 | 2998 ft | 43 kts | 250° |
| 2026-05-09 11:54 | 9.99386 | -84.21145 | 2982 ft | 56 kts | 247° |
| 2026-05-09 11:54 | 9.99261 | -84.21499 | 2967 ft | 39 kts | 249° |
| 2026-05-09 11:54 | 9.99166 | -84.21769 | 2952 ft | 42 kts | 249° |
| 2026-05-09 11:55 | 9.99053 | -84.22057 | 2939 ft | 46 kts | 249° |
| 2026-05-09 11:56 | 9.99271 | -84.21203 | 2978 ft | 126 kts | 70° |
| 2026-05-09 11:56 | 9.99639 | -84.20232 | 3063 ft | 167 kts | 69° |
| 2026-05-09 11:56 | 10.00079 | -84.19110 | 3656 ft | 176 kts | 69° |
| 2026-05-09 11:57 | 10.00516 | -84.17885 | 4300 ft | 194 kts | 70° |
| 2026-05-09 11:57 | 10.01010 | -84.16535 | 4896 ft | 211 kts | 70° |
| 2026-05-09 11:57 | 10.01544 | -84.15149 | 5755 ft | 208 kts | 68° |
| 2026-05-09 11:57 | 10.02070 | -84.13782 | 6687 ft | 210 kts | 68° |
| 2026-05-09 11:58 | 10.02570 | -84.12389 | 7507 ft | 212 kts | 78° |
| 2026-05-09 11:58 | 10.02557 | -84.10878 | 8202 ft | 224 kts | 106° |
| 2026-05-09 11:58 | 10.01673 | -84.09522 | 8922 ft | 240 kts | 136° |
| 2026-05-09 11:58 | 10.00245 | -84.08691 | 9957 ft | 241 kts | 148° |
| 2026-05-09 11:59 | 9.98784 | -84.07766 | 10394 ft | 258 kts | 139° |
| 2026-05-09 11:59 | 9.97266 | -84.06675 | 10854 ft | 277 kts | 141° |
| 2026-05-09 11:59 | 9.95629 | -84.05545 | 11443 ft | 291 kts | 142° |
| 2026-05-09 11:59 | 9.93890 | -84.04367 | 11874 ft | 311 kts | 143° |
| 2026-05-09 12:00 | 9.92030 | -84.03122 | 12223 ft | 331 kts | 142° |
| 2026-05-09 12:00 | 9.90162 | -84.01675 | 12643 ft | 344 kts | 139° |
| 2026-05-09 12:00 | 9.88250 | -84.00155 | 13256 ft | 352 kts | 139° |
| 2026-05-09 12:00 | 9.86309 | -83.98625 | 13944 ft | 358 kts | 140° |
| 2026-05-09 12:01 | 9.84394 | -83.96992 | 14566 ft | 359 kts | 129° |
| 2026-05-09 12:01 | 9.83121 | -83.94884 | 15245 ft | 357 kts | 108° |
| 2026-05-09 12:01 | 9.82708 | -83.92409 | 15832 ft | 359 kts | 86° |
| 2026-05-09 12:01 | 9.83016 | -83.89901 | 16525 ft | 361 kts | 82° |
| 2026-05-09 12:02 | 9.83376 | -83.87344 | 16942 ft | 371 kts | 81° |
| 2026-05-09 12:02 | 9.83757 | -83.84746 | 17551 ft | 374 kts | 81° |
| 2026-05-09 12:02 | 9.84152 | -83.82122 | 18099 ft | 379 kts | 81° |
| 2026-05-09 12:02 | 9.84558 | -83.79467 | 18597 ft | 383 kts | 81° |
| 2026-05-09 12:03 | 9.84969 | -83.76793 | 19090 ft | 385 kts | 81° |
| 2026-05-09 12:03 | 9.85384 | -83.74101 | 19585 ft | 388 kts | 81° |
| 2026-05-09 12:03 | 9.85794 | -83.71438 | 20089 ft | 389 kts | 81° |
| 2026-05-09 12:03 | 9.86213 | -83.68718 | 20572 ft | 392 kts | 81° |
| 2026-05-09 12:04 | 9.86634 | -83.65984 | 21066 ft | 394 kts | 81° |
| 2026-05-09 12:04 | 9.87058 | -83.63229 | 21538 ft | 396 kts | 81° |
| 2026-05-09 12:04 | 9.87484 | -83.60463 | 21993 ft | 398 kts | 81° |
| 2026-05-09 12:04 | 9.87912 | -83.57683 | 22459 ft | 400 kts | 82° |
| 2026-05-09 12:05 | 9.88341 | -83.54892 | 22919 ft | 402 kts | 82° |
| 2026-05-09 12:05 | 9.88772 | -83.52084 | 23376 ft | 404 kts | 82° |
| 2026-05-09 12:05 | 9.89207 | -83.49253 | 23745 ft | 407 kts | 82° |
| 2026-05-09 12:05 | 9.89637 | -83.46451 | 24101 ft | 409 kts | 82° |
| 2026-05-09 12:06 | 9.90075 | -83.43594 | 24423 ft | 411 kts | 82° |
| 2026-05-09 12:06 | 9.90517 | -83.40717 | 24752 ft | 414 kts | 82° |
| 2026-05-09 12:06 | 9.90960 | -83.37823 | 25092 ft | 417 kts | 81° |
| 2026-05-09 12:06 | 9.91406 | -83.34910 | 25435 ft | 419 kts | 81° |
| 2026-05-09 12:07 | 9.91854 | -83.31980 | 25746 ft | 422 kts | 81° |
| 2026-05-09 12:07 | 9.92305 | -83.29031 | 26079 ft | 424 kts | 81° |
| 2026-05-09 12:07 | 9.92758 | -83.26065 | 26421 ft | 426 kts | 81° |
| 2026-05-09 12:07 | 9.93206 | -83.23129 | 26851 ft | 427 kts | 81° |
| 2026-05-09 12:08 | 9.93660 | -83.20157 | 27301 ft | 426 kts | 81° |
| 2026-05-09 12:08 | 9.94113 | -83.17187 | 27755 ft | 426 kts | 81° |
| 2026-05-09 12:08 | 9.94566 | -83.14218 | 28227 ft | 426 kts | 81° |
| 2026-05-09 12:08 | 9.95018 | -83.11252 | 28716 ft | 425 kts | 81° |
| 2026-05-09 12:09 | 9.95469 | -83.08292 | 29181 ft | 425 kts | 80° |
| 2026-05-09 12:09 | 9.95913 | -83.05335 | 29651 ft | 424 kts | 82° |
| 2026-05-09 12:09 | 9.95935 | -83.02345 | 30089 ft | 425 kts | 98° |
| 2026-05-09 12:10 | 9.93432 | -82.93758 | 31190 ft | 427 kts | 106° |
| 2026-05-09 12:10 | 9.92522 | -82.90894 | 31552 ft | 427 kts | 107° |
| 2026-05-09 12:10 | 9.91602 | -82.88025 | 31931 ft | 427 kts | 107° |
| 2026-05-09 12:11 | 9.90683 | -82.85164 | 32305 ft | 427 kts | 107° |
| 2026-05-09 12:11 | 9.89765 | -82.82306 | 32708 ft | 426 kts | 107° |
| 2026-05-09 12:11 | 9.88849 | -82.79454 | 33074 ft | 426 kts | 107° |
| 2026-05-09 12:11 | 9.87930 | -82.76597 | 33442 ft | 426 kts | 107° |
| 2026-05-09 12:12 | 9.87011 | -82.73738 | 33800 ft | 426 kts | 107° |
| 2026-05-09 12:12 | 9.86094 | -82.70888 | 34109 ft | 426 kts | 107° |
| 2026-05-09 12:12 | 9.85188 | -82.68071 | 34398 ft | 426 kts | 107° |
| 2026-05-09 12:12 | 9.84270 | -82.65219 | 34693 ft | 425 kts | 107° |
| 2026-05-09 12:13 | 9.83350 | -82.62362 | 34884 ft | 427 kts | 107° |
| 2026-05-09 12:13 | 9.81456 | -82.56579 | 34897 ft | 438 kts | 108° |
| 2026-05-09 12:14 | 9.79394 | -82.50667 | 34892 ft | 451 kts | 108° |
| 2026-05-09 12:14 | 9.77304 | -82.44639 | 34888 ft | 463 kts | 108° |
| 2026-05-09 12:15 | 9.75146 | -82.38412 | 34885 ft | 474 kts | 108° |
| 2026-05-09 12:15 | 9.72951 | -82.32084 | 34887 ft | 472 kts | 108° |
| 2026-05-09 12:16 | 9.70798 | -82.25878 | 34887 ft | 464 kts | 108° |
| 2026-05-09 12:16 | 9.68654 | -82.19709 | 34893 ft | 464 kts | 108° |
| 2026-05-09 12:17 | 9.66529 | -82.13592 | 34890 ft | 464 kts | 108° |
| 2026-05-09 12:17 | 9.64381 | -82.07420 | 34890 ft | 464 kts | 108° |
| 2026-05-09 12:18 | 9.62240 | -82.01265 | 34887 ft | 462 kts | 108° |
| 2026-05-09 12:18 | 9.60128 | -81.95200 | 34884 ft | 454 kts | 108° |
| 2026-05-09 12:19 | 9.58043 | -81.89216 | 34889 ft | 453 kts | 108° |
| 2026-05-09 12:19 | 9.55942 | -81.83191 | 34889 ft | 453 kts | 108° |
| 2026-05-09 12:20 | 9.53845 | -81.77179 | 34886 ft | 453 kts | 108° |
| 2026-05-09 12:20 | 9.51741 | -81.71155 | 34887 ft | 453 kts | 108° |
| 2026-05-09 12:21 | 9.49639 | -81.65133 | 34884 ft | 454 kts | 108° |
| 2026-05-09 12:21 | 9.47545 | -81.59139 | 34886 ft | 455 kts | 108° |
| 2026-05-09 12:22 | 9.45430 | -81.53093 | 34883 ft | 455 kts | 108° |
| 2026-05-09 12:22 | 9.43315 | -81.47053 | 34878 ft | 455 kts | 108° |
| 2026-05-09 12:23 | 9.41223 | -81.41076 | 34758 ft | 440 kts | 108° |
| 2026-05-09 12:23 | 9.40222 | -81.38217 | 34399 ft | 435 kts | 108° |
| 2026-05-09 12:23 | 9.39198 | -81.35297 | 33851 ft | 434 kts | 108° |
| 2026-05-09 12:23 | 9.38200 | -81.32448 | 33198 ft | 436 kts | 108° |
| 2026-05-09 12:24 | 9.37190 | -81.29568 | 32658 ft | 434 kts | 108° |
| 2026-05-09 12:24 | 9.36185 | -81.26702 | 32193 ft | 430 kts | 108° |
| 2026-05-09 12:24 | 9.35188 | -81.23859 | 31738 ft | 427 kts | 108° |
| 2026-05-09 12:24 | 9.34201 | -81.21050 | 31233 ft | 418 kts | 108° |
| 2026-05-09 12:25 | 9.33239 | -81.18310 | 30769 ft | 407 kts | 108° |
| 2026-05-09 12:25 | 9.32302 | -81.15644 | 30337 ft | 397 kts | 108° |
| 2026-05-09 12:25 | 9.31401 | -81.13076 | 29829 ft | 389 kts | 108° |
| 2026-05-09 12:25 | 9.30497 | -81.10504 | 29143 ft | 389 kts | 108° |
| 2026-05-09 12:26 | 9.29584 | -81.07903 | 28471 ft | 394 kts | 108° |
| 2026-05-09 12:26 | 9.28663 | -81.05284 | 27853 ft | 395 kts | 108° |
| 2026-05-09 12:26 | 9.27745 | -81.02671 | 27255 ft | 392 kts | 108° |
| 2026-05-09 12:26 | 9.26842 | -81.00082 | 26834 ft | 389 kts | 108° |
| 2026-05-09 12:27 | 9.25972 | -80.97501 | 26464 ft | 386 kts | 108° |
| 2026-05-09 12:27 | 9.25103 | -80.94934 | 26184 ft | 384 kts | 108° |
| 2026-05-09 12:27 | 9.24239 | -80.92386 | 25824 ft | 381 kts | 108° |
| 2026-05-09 12:27 | 9.23393 | -80.89890 | 25438 ft | 378 kts | 108° |
| 2026-05-09 12:28 | 9.22543 | -80.87387 | 25060 ft | 375 kts | 108° |
| 2026-05-09 12:28 | 9.21700 | -80.84899 | 24679 ft | 372 kts | 108° |
| 2026-05-09 12:28 | 9.20862 | -80.82432 | 24235 ft | 369 kts | 108° |
| 2026-05-09 12:28 | 9.20032 | -80.79986 | 23826 ft | 366 kts | 108° |
| 2026-05-09 12:29 | 9.19208 | -80.77561 | 23442 ft | 363 kts | 108° |
| 2026-05-09 12:29 | 9.18392 | -80.75157 | 23001 ft | 360 kts | 108° |
| 2026-05-09 12:29 | 9.17581 | -80.72768 | 22623 ft | 358 kts | 108° |
| 2026-05-09 12:29 | 9.16782 | -80.70418 | 22258 ft | 357 kts | 108° |
| 2026-05-09 12:30 | 9.15976 | -80.68044 | 21895 ft | 356 kts | 108° |
| 2026-05-09 12:30 | 9.15171 | -80.65678 | 21536 ft | 355 kts | 108° |
| 2026-05-09 12:30 | 9.13570 | -80.60968 | 20811 ft | 353 kts | 108° |
| 2026-05-09 12:31 | 9.12772 | -80.58624 | 20450 ft | 352 kts | 109° |
| 2026-05-09 12:31 | 9.11183 | -80.53953 | 19753 ft | 350 kts | 109° |
| 2026-05-09 12:31 | 9.10391 | -80.51628 | 19403 ft | 349 kts | 109° |
| 2026-05-09 12:32 | 9.09612 | -80.49339 | 19055 ft | 348 kts | 109° |
| 2026-05-09 12:32 | 9.08823 | -80.47023 | 18714 ft | 348 kts | 109° |
| 2026-05-09 12:32 | 9.08045 | -80.44739 | 18355 ft | 338 kts | 109° |
| 2026-05-09 12:32 | 9.07289 | -80.42519 | 17934 ft | 330 kts | 109° |
| 2026-05-09 12:33 | 9.06553 | -80.40358 | 17547 ft | 321 kts | 109° |
| 2026-05-09 12:33 | 9.06007 | -80.38189 | 17127 ft | 317 kts | 98° |
| 2026-05-09 12:33 | 9.05658 | -80.35988 | 16805 ft | 317 kts | 99° |
| 2026-05-09 12:33 | 9.05269 | -80.33802 | 16485 ft | 315 kts | 100° |
| 2026-05-09 12:34 | 9.04872 | -80.31634 | 16173 ft | 312 kts | 100° |
| 2026-05-09 12:34 | 9.04475 | -80.29512 | 15856 ft | 310 kts | 100° |
| 2026-05-09 12:34 | 9.04071 | -80.27378 | 15540 ft | 308 kts | 100° |
| 2026-05-09 12:34 | 9.03669 | -80.25260 | 15231 ft | 305 kts | 100° |
| 2026-05-09 12:35 | 9.03269 | -80.23157 | 14923 ft | 304 kts | 100° |
| 2026-05-09 12:35 | 9.02867 | -80.21045 | 14612 ft | 307 kts | 100° |
| 2026-05-09 12:35 | 9.02464 | -80.18928 | 14303 ft | 306 kts | 100° |
| 2026-05-09 12:35 | 9.02062 | -80.16822 | 14000 ft | 304 kts | 100° |
| 2026-05-09 12:36 | 9.01663 | -80.14730 | 13677 ft | 302 kts | 100° |
| 2026-05-09 12:36 | 9.01265 | -80.12644 | 13338 ft | 301 kts | 100° |
| 2026-05-09 12:36 | 9.00876 | -80.10601 | 13020 ft | 299 kts | 99° |
| 2026-05-09 12:36 | 9.00484 | -80.08547 | 12717 ft | 297 kts | 99° |
| 2026-05-09 12:37 | 9.00094 | -80.06503 | 12418 ft | 295 kts | 99° |
| 2026-05-09 12:37 | 8.99705 | -80.04469 | 12114 ft | 294 kts | 99° |
| 2026-05-09 12:37 | 8.99319 | -80.02449 | 11818 ft | 292 kts | 99° |
| 2026-05-09 12:37 | 8.98936 | -80.00443 | 11520 ft | 290 kts | 99° |
| 2026-05-09 12:38 | 8.98555 | -79.98447 | 11220 ft | 289 kts | 99° |
| 2026-05-09 12:38 | 8.98173 | -79.96453 | 10951 ft | 288 kts | 99° |
| 2026-05-09 12:38 | 8.97794 | -79.94471 | 10655 ft | 286 kts | 99° |
| 2026-05-09 12:38 | 8.97422 | -79.92523 | 10360 ft | 285 kts | 98° |
| 2026-05-09 12:39 | 8.97046 | -79.90563 | 10068 ft | 283 kts | 98° |
| 2026-05-09 12:39 | 8.96674 | -79.88618 | 9784 ft | 281 kts | 98° |
| 2026-05-09 12:39 | 8.96304 | -79.86685 | 9473 ft | 279 kts | 98° |
| 2026-05-09 12:39 | 8.95935 | -79.84762 | 9156 ft | 278 kts | 98° |
| 2026-05-09 12:40 | 8.95570 | -79.82853 | 8864 ft | 275 kts | 98° |
| 2026-05-09 12:40 | 8.95111 | -79.80994 | 8615 ft | 272 kts | 106° |
| 2026-05-09 12:40 | 8.94501 | -79.79206 | 8458 ft | 265 kts | 105° |
| 2026-05-09 12:40 | 8.93920 | -79.77465 | 8312 ft | 260 kts | 105° |
| 2026-05-09 12:41 | 8.93357 | -79.75755 | 8163 ft | 260 kts | 105° |
| 2026-05-09 12:41 | 8.92788 | -79.74007 | 7757 ft | 265 kts | 105° |
| 2026-05-09 12:41 | 8.92207 | -79.72208 | 7238 ft | 273 kts | 105° |
| 2026-05-09 12:41 | 8.91610 | -79.70352 | 6675 ft | 282 kts | 105° |
| 2026-05-09 12:42 | 8.90995 | -79.68438 | 6118 ft | 290 kts | 105° |
| 2026-05-09 12:42 | 8.90363 | -79.66473 | 5603 ft | 295 kts | 105° |
| 2026-05-09 12:42 | 8.89742 | -79.64544 | 5276 ft | 283 kts | 105° |
| 2026-05-09 12:42 | 8.89145 | -79.62683 | 4900 ft | 273 kts | 105° |
| 2026-05-09 12:43 | 8.88577 | -79.60920 | 4640 ft | 262 kts | 104° |
| 2026-05-09 12:43 | 8.87985 | -79.59217 | 4332 ft | 253 kts | 111° |
| 2026-05-09 12:43 | 8.87142 | -79.57696 | 4127 ft | 240 kts | 117° |
| 2026-05-09 12:43 | 8.86279 | -79.56325 | 3882 ft | 224 kts | 118° |
| 2026-05-09 12:44 | 8.85453 | -79.55036 | 3577 ft | 211 kts | 118° |
| 2026-05-09 12:44 | 8.84676 | -79.53837 | 3222 ft | 197 kts | 116° |
| 2026-05-09 12:44 | 8.84308 | -79.52612 | 2831 ft | 181 kts | 83° |
| 2026-05-09 12:44 | 8.84692 | -79.51464 | 2389 ft | 172 kts | 51° |
| 2026-05-09 12:45 | 8.85504 | -79.50602 | 2109 ft | 169 kts | 39° |
| 2026-05-09 12:45 | 8.86445 | -79.49879 | 2083 ft | 172 kts | 34° |
| 2026-05-09 12:45 | 8.87435 | -79.49220 | 2051 ft | 174 kts | 31° |
| 2026-05-09 12:45 | 8.88470 | -79.48584 | 2042 ft | 174 kts | 30° |
| 2026-05-09 12:46 | 8.89517 | -79.47969 | 1981 ft | 174 kts | 29° |
| 2026-05-09 12:46 | 8.90570 | -79.47364 | 1927 ft | 175 kts | 29° |
| 2026-05-09 12:46 | 8.91614 | -79.46767 | 1808 ft | 167 kts | 28° |
| 2026-05-09 12:46 | 8.92639 | -79.46182 | 1406 ft | 170 kts | 28° |
| 2026-05-09 12:47 | 8.93682 | -79.45585 | 1441 ft | 175 kts | 28° |
| 2026-05-09 12:47 | 8.94752 | -79.44974 | 1466 ft | 179 kts | 28° |
| 2026-05-09 12:47 | 8.95846 | -79.44351 | 1448 ft | 182 kts | 28° |
| 2026-05-09 12:47 | 8.96950 | -79.43720 | 1444 ft | 183 kts | 28° |
| 2026-05-09 12:48 | 8.97982 | -79.43130 | 1405 ft | 159 kts | 28° |
| 2026-05-09 12:48 | 8.98891 | -79.42614 | 1270 ft | 145 kts | 28° |
| 2026-05-09 12:48 | 8.99745 | -79.42128 | 1100 ft | 137 kts | 29° |
| 2026-05-09 12:48 | 9.00564 | -79.41657 | 940 ft | 135 kts | 28° |
| 2026-05-09 12:49 | 9.01387 | -79.41190 | 792 ft | 137 kts | 29° |
| 2026-05-09 12:49 | 9.02219 | -79.40713 | 642 ft | 137 kts | 28° |
| 2026-05-09 12:49 | 9.03049 | -79.40238 | 445 ft | 138 kts | 28° |
| 2026-05-09 12:49 | 9.03895 | -79.39757 | 263 ft | 141 kts | 28° |
| 2026-05-09 12:50 | 9.04753 | -79.39268 | 94 ft | 141 kts | 28° |
| 2026-05-09 12:50 | 9.05561 | -79.38811 | 43 ft | 115 kts | 31° |
| 2026-05-09 12:50 | 9.06089 | -79.38510 | 46 ft | 62 kts | 29° |
| 2026-05-09 12:50 | 9.06349 | -79.38398 | 46 ft | 36 kts | 8° |
| 2026-05-09 12:51 | 9.06602 | -79.38406 | 47 ft | 36 kts | 336° |
| 2026-05-09 12:51 | 9.06757 | -79.38487 | 47 ft | 0 kts | 319° |